Time;durP1;ratioP1;P1;durP2;ratioP2;P2;SDS_P1;SDS_P2;PMS_P1;PMS_P2;Temp;Humidity;BMP_temperature;BMP_pressure;BME280_temperature;BME280_humidity;BME280_pressure;Samples;Min_cycle;Max_cycle;Signal;HPM_P1;HPM_P2
2023/09/08 00:01:20;;;;;;;;;;;;;;;28.70;45.71;101908.72;5062238;28;20250;-66
2023/09/08 00:03:46;;;;;;;;;;;;;;;28.52;45.94;101879.09;5010232;28;19928;-64
2023/09/08 00:06:11;;;;;;;;;;;;;;;28.67;45.94;101917.19;5063132;28;19972;-64
2023/09/08 00:08:36;;;;;;;;;;;;;;;28.62;46.14;101908.97;5017207;28;19950;-65
2023/09/08 00:11:02;;;;;;;;;;;;;;;28.64;45.98;101908.75;5058799;28;20389;-65
2023/09/08 00:13:27;;;;;;;;;;;;;;;28.63;45.93;101904.44;5011385;28;19924;-64
2023/09/08 00:15:52;;;;;;;;;;;;;;;28.63;45.92;101899.88;5061149;28;20451;-64
2023/09/08 00:18:18;;;;;;;;;;;;;;;28.61;46.01;101899.28;5012588;28;19928;-64
2023/09/08 00:20:43;;;;;;;;;;;;;;;28.70;45.82;101899.84;5052965;28;20866;-64
2023/09/08 00:23:09;;;;;;;;;;;;;;;28.62;45.89;101900.91;5008352;28;19924;-67
2023/09/08 00:25:34;;;;;;;;;;;;;;;28.66;45.84;101891.41;5060732;28;19962;-66
2023/09/08 00:28:00;;;;;;;;;;;;;;;28.65;45.96;101899.66;5014603;28;19928;-65
2023/09/08 00:30:25;;;;;;;;;;;;;;;28.62;46.07;101900.09;5066417;28;20780;-65
2023/09/08 00:32:50;;;;;;;;;;;;;;;28.65;46.00;101891.63;5016022;28;19932;-66
2023/09/08 00:35:16;;;;;;;;;;;;;;;28.64;45.96;101895.34;5056249;28;19928;-66
2023/09/08 00:37:41;;;;;;;;;;;;;;;28.65;45.92;101894.31;5013260;28;20440;-66
2023/09/08 00:40:08;;;;;;;;;;;;;;;28.63;45.95;101888.34;5054988;28;19920;-66
2023/09/08 00:42:34;;;;;;;;;;;;;;;28.65;45.89;101894.31;5013685;28;19931;-66
2023/09/08 00:44:59;;;;;;;;;;;;;;;28.61;45.96;101887.75;5064769;28;19924;-66
2023/09/08 00:47:24;;;;;;;;;;;;;;;28.66;45.80;101887.91;5015046;28;19943;-65
2023/09/08 00:49:51;;;;;;;;;;;;;;;28.62;45.93;101887.53;5064328;28;20670;-64
2023/09/08 00:52:16;;;;;;;;;;;;;;;28.63;45.84;101888.34;5011840;28;20235;-64
2023/09/08 00:54:42;;;;;;;;;;;;;;;28.62;45.86;101892.88;5076823;28;19924;-64
2023/09/08 00:57:09;;;;;;;;;;;;;;;28.68;45.71;101889.34;5014725;28;20702;-64
2023/09/08 00:59:34;;;;;;;;;;;;;;;28.66;45.66;101893.28;5059925;28;20005;-64
2023/09/08 01:02:00;;;;;;;;;;;;;;;28.68;45.84;101891.19;5009545;28;21334;-66
2023/09/08 01:04:26;;;;;;;;;;;;;;;28.63;45.80;101893.72;5059247;28;19974;-67
2023/09/08 01:06:52;;;;;;;;;;;;;;;28.62;45.77;101889.38;5045404;28;19924;-66
2023/09/08 01:09:18;;;;;;;;;;;;;;;28.57;45.88;101888.16;5059403;28;20429;-66
2023/09/08 01:11:44;;;;;;;;;;;;;;;28.61;45.82;101891.25;5027204;28;20737;-63
2023/09/08 01:14:13;;;;;;;;;;;;;;;28.46;45.92;101864.72;5058132;28;20358;-64
2023/09/08 01:16:40;;;;;;;;;;;;;;;28.65;45.66;101887.09;5004916;28;20113;-64
2023/09/08 01:19:06;;;;;;;;;;;;;;;28.64;45.64;101885.44;5064003;28;20530;-65
2023/09/08 01:21:51;;;;;;;;;;;;;;;28.66;45.54;101879.88;5003538;28;20501;-65
2023/09/08 01:24:28;;;;;;;;;;;;;;;28.59;45.74;101887.94;5057508;28;19978;-66
2023/09/08 01:26:54;;;;;;;;;;;;;;;28.65;45.68;101891.63;5015089;28;19920;-66
2023/09/08 01:29:19;;;;;;;;;;;;;;;28.58;45.77;101889.81;5057605;28;19986;-66
2023/09/08 01:31:45;;;;;;;;;;;;;;;28.65;45.68;101881.72;5012237;28;19963;-64
2023/09/08 01:34:11;;;;;;;;;;;;;;;28.65;45.60;101880.91;5062309;28;19924;-65
2023/09/08 01:36:37;;;;;;;;;;;;;;;28.63;45.67;101885.66;5005243;28;20363;-67
2023/09/08 01:39:02;;;;;;;;;;;;;;;28.60;45.71;101886.91;5057033;28;20568;-67
2023/09/08 01:41:28;;;;;;;;;;;;;;;28.61;45.63;101893.91;5010378;28;20705;-65
2023/09/08 01:43:54;;;;;;;;;;;;;;;28.61;45.59;101885.88;5062092;28;20017;-65
2023/09/08 01:46:23;;;;;;;;;;;;;;;28.43;45.80;101858.97;5018944;28;19969;-67
2023/09/08 01:48:48;;;;;;;;;;;;;;;28.64;45.72;101887.31;5073436;28;19970;-65
2023/09/08 01:51:14;;;;;;;;;;;;;;;28.63;45.69;101886.47;5041360;28;20436;-64
2023/09/08 01:53:42;;;;;;;;;;;;;;;28.63;45.45;101880.31;5025798;28;20666;-67
2023/09/08 01:56:10;;;;;;;;;;;;;;;28.65;45.26;101880.91;5029630;28;19935;-66
2023/09/08 01:58:40;;;;;;;;;;;;;;;28.65;45.53;101887.09;5057138;28;20374;-66
2023/09/08 02:01:05;;;;;;;;;;;;;;;28.61;45.69;101879.69;5068312;28;19955;-66
2023/09/08 02:03:34;;;;;;;;;;;;;;;28.57;45.65;101882.81;5016156;28;20233;-64
2023/09/08 02:05:59;;;;;;;;;;;;;;;28.41;45.53;101856.50;5062961;28;19963;-65
2023/09/08 02:08:29;;;;;;;;;;;;;;;28.58;45.46;101876.41;5018896;28;19948;-66
2023/09/08 02:10:55;;;;;;;;;;;;;;;28.59;45.83;101867.34;5037722;28;19953;-66
2023/09/08 02:13:21;;;;;;;;;;;;;;;28.55;45.63;101863.44;5061603;28;19967;-66
2023/09/08 02:15:47;;;;;;;;;;;;;;;28.56;45.63;101866.94;5013557;28;20043;-65
2023/09/08 02:18:13;;;;;;;;;;;;;;;28.53;45.63;101862.81;5060625;28;20421;-65
2023/09/08 02:20:39;;;;;;;;;;;;;;;28.60;45.50;101868.16;5021378;28;20529;-66
2023/09/08 02:23:05;;;;;;;;;;;;;;;28.60;45.46;101870.84;5063979;28;19944;-66
2023/09/08 02:25:32;;;;;;;;;;;;;;;28.56;45.64;101866.94;5012751;28;19924;-67
2023/09/08 02:27:57;;;;;;;;;;;;;;;28.56;45.75;101865.09;5061761;28;19984;-66
2023/09/08 02:30:23;;;;;;;;;;;;;;;28.61;45.36;101871.66;5010200;28;19943;-67
2023/09/08 02:32:49;;;;;;;;;;;;;;;28.58;45.50;101870.22;5060420;28;20427;-66
2023/09/08 02:35:15;;;;;;;;;;;;;;;28.39;45.51;101837.13;5002555;28;19920;-67
2023/09/08 02:37:40;;;;;;;;;;;;;;;28.59;45.47;101863.84;5061241;28;20442;-67
2023/09/08 02:40:06;;;;;;;;;;;;;;;28.67;45.26;101863.56;5009319;28;20045;-65
2023/09/08 02:42:33;;;;;;;;;;;;;;;28.60;45.35;101862.81;5093594;27;20261;-65
2023/09/08 02:44:58;;;;;;;;;;;;;;;28.60;45.44;101870.84;5030292;27;20344;-66
2023/09/08 02:47:24;;;;;;;;;;;;;;;28.56;45.59;101856.22;5072388;28;20381;-67
2023/09/08 02:49:49;;;;;;;;;;;;;;;28.54;45.29;101859.09;5009965;28;20784;-65
2023/09/08 02:52:15;;;;;;;;;;;;;;;28.59;45.56;101855.78;5048431;28;20026;-65
2023/09/08 02:54:40;;;;;;;;;;;;;;;28.58;45.47;101859.50;5001462;28;24526;-66
2023/09/08 02:57:06;;;;;;;;;;;;;;;28.54;45.51;101856.41;5062895;28;19923;-66
2023/09/08 02:59:32;;;;;;;;;;;;;;;28.56;45.65;101854.38;5010431;28;20027;-67
2023/09/08 03:01:59;;;;;;;;;;;;;;;28.54;45.64;101856.41;5055385;28;19982;-67
2023/09/08 03:04:27;;;;;;;;;;;;;;;28.52;45.68;101857.66;5029855;28;19954;-64
2023/09/08 03:06:53;;;;;;;;;;;;;;;28.52;45.34;101863.03;5027628;28;19961;-66
2023/09/08 03:09:23;;;;;;;;;;;;;;;28.36;45.49;101820.66;5068001;28;19943;-66
2023/09/08 03:11:54;;;;;;;;;;;;;;;28.50;45.45;101860.56;5018747;28;19943;-67
2023/09/08 03:14:25;;;;;;;;;;;;;;;28.38;45.48;101835.50;5043726;28;19955;-66
2023/09/08 03:16:53;;;;;;;;;;;;;;;28.53;45.45;101859.31;5024801;28;19924;-65
2023/09/08 03:19:18;;;;;;;;;;;;;;;28.57;45.42;101855.19;5053153;28;19928;-65
2023/09/08 03:21:45;;;;;;;;;;;;;;;28.55;45.17;101858.09;5012169;28;19942;-66
2023/09/08 03:24:10;;;;;;;;;;;;;;;28.52;45.39;101850.44;5062150;28;19983;-66
2023/09/08 03:26:36;;;;;;;;;;;;;;;28.55;45.36;101842.00;5003920;28;21098;-66
2023/09/08 03:29:01;;;;;;;;;;;;;;;28.55;45.15;101842.00;5067333;28;20497;-66
2023/09/08 03:31:30;;;;;;;;;;;;;;;28.53;45.27;101844.06;5035551;28;19951;-64
2023/09/08 03:34:01;;;;;;;;;;;;;;;28.56;45.31;101837.47;5024394;28;19947;-66
2023/09/08 03:36:28;;;;;;;;;;;;;;;28.50;45.27;101833.78;5039339;28;19942;-65
2023/09/08 03:38:53;;;;;;;;;;;;;;;28.51;45.25;101829.22;5044128;28;19934;-66
2023/09/08 03:41:21;;;;;;;;;;;;;;;28.53;45.38;101830.66;5062764;28;19969;-67
2023/09/08 03:43:49;;;;;;;;;;;;;;;28.54;45.25;101829.63;5030268;28;19947;-64
2023/09/08 03:46:14;;;;;;;;;;;;;;;28.50;45.13;101828.41;5072451;28;19965;-65
2023/09/08 03:48:45;;;;;;;;;;;;;;;28.50;45.29;101831.09;5033090;28;19924;-67
2023/09/08 03:51:11;;;;;;;;;;;;;;;28.52;45.21;101830.88;5062018;28;20427;-66
2023/09/08 03:53:36;;;;;;;;;;;;;;;28.54;45.20;101837.66;5013556;28;19998;-66
2023/09/08 03:56:02;;;;;;;;;;;;;;;28.46;45.51;101845.13;5061909;28;19943;-66
2023/09/08 03:58:28;;;;;;;;;;;;;;;28.51;45.24;101834.59;5005153;28;20481;-66
2023/09/08 04:00:54;;;;;;;;;;;;;;;28.54;45.15;101839.50;5068897;28;19938;-66
2023/09/08 04:03:19;;;;;;;;;;;;;;;28.47;45.41;101834.19;5015695;28;19965;-64
2023/09/08 04:05:45;;;;;;;;;;;;;;;28.45;45.45;101833.59;5070481;28;19969;-64
2023/09/08 04:08:10;;;;;;;;;;;;;;;28.46;45.48;101842.44;5020002;28;19943;-67
2023/09/08 04:10:35;;;;;;;;;;;;;;;28.51;45.27;101838.09;5072986;28;20025;-67
2023/09/08 04:13:01;;;;;;;;;;;;;;;28.51;45.18;101840.78;5021529;28;20000;-66
2023/09/08 04:15:26;;;;;;;;;;;;;;;28.46;45.29;101840.59;5058807;28;19986;-66
2023/09/08 04:17:52;;;;;;;;;;;;;;;28.52;45.19;101838.91;5020245;28;20641;-67
2023/09/08 04:20:17;;;;;;;;;;;;;;;28.47;45.35;101833.38;5055599;28;19942;-63
2023/09/08 04:22:43;;;;;;;;;;;;;;;28.45;45.16;101836.28;5060362;28;19934;-65
2023/09/08 04:25:10;;;;;;;;;;;;;;;28.46;45.24;101827.19;5071019;28;20001;-65
2023/09/08 04:27:36;;;;;;;;;;;;;;;28.44;45.29;101831.94;5026959;28;20463;-67
2023/09/08 04:30:03;;;;;;;;;;;;;;;28.49;45.21;101828.63;5069558;28;19964;-67
2023/09/08 04:32:28;;;;;;;;;;;;;;;28.42;45.51;101833.22;5013309;28;20708;-65
2023/09/08 04:34:54;;;;;;;;;;;;;;;28.45;45.09;101827.41;5068319;28;19946;-65
2023/09/08 04:37:20;;;;;;;;;;;;;;;28.44;45.24;101831.13;5007447;28;20046;-65
2023/09/08 04:39:45;;;;;;;;;;;;;;;28.46;45.25;101834.41;5078587;28;19978;-65
2023/09/08 04:42:12;;;;;;;;;;;;;;;28.44;45.15;101828.44;5031884;28;19947;-66
2023/09/08 04:44:39;;;;;;;;;;;;;;;28.44;45.28;101840.00;5062342;28;19941;-66
2023/09/08 04:47:05;;;;;;;;;;;;;;;28.43;45.36;101837.53;5042540;27;19999;-66
2023/09/08 04:49:31;;;;;;;;;;;;;;;28.52;45.04;101833.56;5054005;28;19987;-67
2023/09/08 04:51:56;;;;;;;;;;;;;;;28.52;44.95;101830.88;5008251;28;20001;-66
2023/09/08 04:54:26;;;;;;;;;;;;;;;28.45;45.08;101828.25;5056836;28;19949;-66
2023/09/08 04:56:53;;;;;;;;;;;;;;;28.44;45.14;101840.00;5029164;28;20677;-66
2023/09/08 04:59:19;;;;;;;;;;;;;;;28.45;45.16;101830.91;5089238;27;20380;-65
2023/09/08 05:01:45;;;;;;;;;;;;;;;28.46;45.01;101834.41;5005190;28;19964;-65
2023/09/08 05:04:11;;;;;;;;;;;;;;;28.45;45.03;101830.91;5060993;28;19943;-65
2023/09/08 05:06:37;;;;;;;;;;;;;;;28.46;44.93;101829.06;5012936;28;20028;-66
2023/09/08 05:09:02;;;;;;;;;;;;;;;28.46;44.87;101832.56;5066166;28;19945;-66
2023/09/08 05:11:29;;;;;;;;;;;;;;;28.42;45.17;101827.84;5049610;27;19949;-66
2023/09/08 05:13:55;;;;;;;;;;;;;;;28.47;44.93;101825.34;5057965;28;19938;-66
2023/09/08 05:16:36;;;;;;;;;;;;;;;28.42;45.10;101828.66;5009749;28;19967;-65
2023/09/08 05:19:02;;;;;;;;;;;;;;;28.43;44.84;101830.31;5073072;28;19943;-64
2023/09/08 05:21:28;;;;;;;;;;;;;;;28.39;45.12;101833.63;5006799;28;20472;-67
2023/09/08 05:23:54;;;;;;;;;;;;;;;28.45;44.97;101822.06;5044109;28;19950;-67
2023/09/08 05:26:20;;;;;;;;;;;;;;;28.42;45.06;101831.34;5061458;28;20070;-67
2023/09/08 05:28:45;;;;;;;;;;;;;;;28.39;45.25;101825.59;5014380;28;19952;-67
2023/09/08 05:31:11;;;;;;;;;;;;;;;28.39;45.07;101829.09;5059630;28;20599;-67
2023/09/08 05:33:37;;;;;;;;;;;;;;;28.38;45.22;101832.81;5019523;28;19980;-65
2023/09/08 05:36:03;;;;;;;;;;;;;;;28.37;45.13;101833.00;5065942;28;20088;-65
2023/09/08 05:38:28;;;;;;;;;;;;;;;28.37;45.16;101833.00;5058193;27;19999;-66
2023/09/08 05:40:54;;;;;;;;;;;;;;;28.35;45.20;101832.41;5064244;28;19939;-67
2023/09/08 05:43:20;;;;;;;;;;;;;;;28.37;45.02;101828.50;5003284;28;20052;-66
2023/09/08 05:45:46;;;;;;;;;;;;;;;28.39;45.04;101825.59;5080361;28;20613;-66
2023/09/08 05:48:11;;;;;;;;;;;;;;;28.44;44.98;101825.78;5004333;28;20581;-67
2023/09/08 05:50:37;;;;;;;;;;;;;;;28.38;44.91;101830.13;5061892;28;19983;-67
2023/09/08 05:53:02;;;;;;;;;;;;;;;28.40;44.89;101835.28;5015379;28;20011;-67
2023/09/08 05:55:28;;;;;;;;;;;;;;;28.37;45.08;101828.50;5070756;28;19988;-66
2023/09/08 05:57:53;;;;;;;;;;;;;;;28.34;45.18;101830.75;5006435;28;20349;-67
2023/09/08 06:00:19;;;;;;;;;;;;;;;28.37;45.05;101830.31;5066409;28;20000;-67
2023/09/08 06:02:48;;;;;;;;;;;;;;;28.37;45.02;101827.63;5011968;28;23028;-64
2023/09/08 06:05:16;;;;;;;;;;;;;;;28.37;45.01;101830.31;5060676;28;20470;-65
2023/09/08 06:07:41;;;;;;;;;;;;;;;28.37;44.98;101833.00;4997247;28;22068;-67
2023/09/08 06:10:08;;;;;;;;;;;;;;;28.38;44.92;101827.47;5070896;28;20749;-66
2023/09/08 06:12:34;;;;;;;;;;;;;;;28.24;44.79;101804.41;5033924;28;19936;-65
2023/09/08 06:15:03;;;;;;;;;;;;;;;28.39;44.94;101833.63;5019140;28;20292;-66
2023/09/08 06:17:36;;;;;;;;;;;;;;;28.16;45.03;101808.13;5033270;28;19948;-66
2023/09/08 06:20:02;;;;;;;;;;;;;;;28.37;45.02;101835.69;5079351;28;20416;-67
2023/09/08 06:22:28;;;;;;;;;;;;;;;28.20;44.84;101811.22;5052917;28;19935;-67
2023/09/08 06:24:55;;;;;;;;;;;;;;;28.34;45.01;101838.78;5025773;28;20048;-66
2023/09/08 06:27:26;;;;;;;;;;;;;;;28.37;45.09;101831.19;5042120;28;20060;-66
2023/09/08 06:29:52;;;;;;;;;;;;;;;28.37;44.80;101833.84;5029034;28;19950;-65
2023/09/08 06:32:18;;;;;;;;;;;;;;;28.40;44.88;101833.41;5056683;28;19964;-65
2023/09/08 06:34:46;;;;;;;;;;;;;;;28.37;44.96;101835.69;4995821;28;19980;-66
2023/09/08 06:37:12;;;;;;;;;;;;;;;28.39;44.98;101834.47;5058608;28;20400;-66
2023/09/08 06:39:37;;;;;;;;;;;;;;;28.37;44.93;101830.31;5009087;28;20059;-67
2023/09/08 06:42:04;;;;;;;;;;;;;;;28.37;44.89;101828.50;5057733;28;19973;-67
2023/09/08 06:44:29;;;;;;;;;;;;;;;28.33;45.04;101823.75;5010753;28;19990;-67
2023/09/08 06:46:56;;;;;;;;;;;;;;;28.37;44.88;101828.50;5061590;28;20369;-67
2023/09/08 06:49:22;;;;;;;;;;;;;;;28.39;44.92;101831.78;5003387;28;20126;-65
2023/09/08 06:51:48;;;;;;;;;;;;;;;28.39;44.96;101834.47;5057974;28;19938;-65
2023/09/08 06:54:14;;;;;;;;;;;;;;;28.44;44.82;101825.78;5013725;28;19962;-65
2023/09/08 06:56:42;;;;;;;;;;;;;;;28.41;44.92;101828.88;5058140;28;19936;-65
2023/09/08 06:59:08;;;;;;;;;;;;;;;28.46;44.69;101821.84;4995601;28;19954;-64
2023/09/08 07:01:33;;;;;;;;;;;;;;;28.45;44.67;101824.75;5058459;28;20046;-65
2023/09/08 07:03:59;;;;;;;;;;;;;;;28.46;44.88;101826.38;5007756;28;20631;-66
2023/09/08 07:06:25;;;;;;;;;;;;;;;28.48;44.96;101830.47;5060366;28;19971;-67
2023/09/08 07:08:51;;;;;;;;;;;;;;;28.47;44.75;101825.34;5009721;28;20409;-67
2023/09/08 07:11:18;;;;;;;;;;;;;;;28.48;44.26;101832.34;5059094;28;19946;-69
2023/09/08 07:13:48;;;;;;;;;;;;;;;28.45;44.34;101835.47;5040160;28;19948;-67
2023/09/08 07:16:14;;;;;;;;;;;;;;;28.44;44.47;101842.66;5039637;28;20153;-69
2023/09/08 07:18:40;;;;;;;;;;;;;;;28.44;44.47;101836.50;5055986;28;19945;-69
2023/09/08 07:21:08;;;;;;;;;;;;;;;28.44;44.36;101833.81;5006071;28;19952;-67
2023/09/08 07:23:36;;;;;;;;;;;;;;;28.32;44.48;101809.53;5037220;28;19941;-67
2023/09/08 07:26:07;;;;;;;;;;;;;;;28.46;44.10;101837.91;5053514;28;19960;-70
2023/09/08 07:28:34;;;;;;;;;;;;;;;28.46;44.20;101840.59;5080905;28;19942;-70
2023/09/08 07:31:05;;;;;;;;;;;;;;;28.47;44.33;101836.88;5009560;28;19936;-67
2023/09/08 07:33:33;;;;;;;;;;;;;;;28.51;44.17;101835.41;5038872;28;19973;-67
2023/09/08 07:36:03;;;;;;;;;;;;;;;28.52;44.39;101836.22;5049723;28;20057;-67
2023/09/08 07:38:28;;;;;;;;;;;;;;;28.53;44.20;101838.69;5014538;28;19939;-67
2023/09/08 07:40:53;;;;;;;;;;;;;;;28.53;44.29;101848.59;5058414;28;20282;-68
2023/09/08 07:43:19;;;;;;;;;;;;;;;28.53;44.16;101837.88;5003998;28;19960;-66
2023/09/08 07:45:44;;;;;;;;;;;;;;;28.51;44.35;101838.09;5060109;28;19966;-67
2023/09/08 07:48:10;;;;;;;;;;;;;;;28.54;44.38;101836.84;5004083;28;20261;-67
2023/09/08 07:50:35;;;;;;;;;;;;;;;28.57;44.34;101844.47;5058307;28;19941;-67
2023/09/08 07:53:00;;;;;;;;;;;;;;;28.58;44.45;101843.44;5001728;28;20402;-67
2023/09/08 07:55:27;;;;;;;;;;;;;;;28.59;44.31;101837.88;5061225;28;20303;-67
2023/09/08 07:57:53;;;;;;;;;;;;;;;28.59;44.42;101839.72;5003591;28;20494;-67
2023/09/08 08:00:18;;;;;;;;;;;;;;;28.59;44.25;101842.41;5056638;28;20661;-66
2023/09/08 08:02:53;;;;;;;;;;;;;;;28.62;44.51;101835.78;5001202;28;20059;-66
2023/09/08 08:05:18;;;;;;;;;;;;;;;28.63;44.35;101840.09;5050036;28;20052;-66
2023/09/08 08:07:44;;;;;;;;;;;;;;;28.64;44.45;101836.38;4998022;28;20671;-67
2023/09/08 08:10:10;;;;;;;;;;;;;;;28.67;44.12;101826.06;5059061;28;19946;-67
2023/09/08 08:12:36;;;;;;;;;;;;;;;28.66;44.29;101824.41;5027252;28;19943;-66
2023/09/08 08:15:02;;;;;;;;;;;;;;;28.66;44.44;101834.31;5042253;28;20018;-67
2023/09/08 08:17:29;;;;;;;;;;;;;;;28.68;44.45;101832.25;5028071;28;20363;-66
2023/09/08 08:20:16;;;;;;;;;;;;;;;28.70;44.34;101830.97;5062983;28;19952;-67
2023/09/08 08:22:42;;;;;;;;;;;;;;;28.71;44.27;101829.94;5003588;28;20955;-69
2023/09/08 08:25:08;;;;;;;;;;;;;;;28.72;44.55;101828.91;5055395;28;20033;-68
2023/09/08 08:27:34;;;;;;;;;;;;;;;28.73;44.63;101833.25;5008870;28;20460;-68
2023/09/08 08:30:00;;;;;;;;;;;;;;;28.77;44.47;101833.63;5059176;28;20061;-69
2023/09/08 08:32:30;;;;;;;;;;;;;;;28.75;44.37;101838.41;5043400;28;19935;-67
2023/09/08 08:34:57;;;;;;;;;;;;;;;28.75;44.57;101830.34;5027460;28;19945;-69
2023/09/08 08:37:23;;;;;;;;;;;;;;;28.78;44.67;101835.28;5045958;28;19994;-67
2023/09/08 08:39:48;;;;;;;;;;;;;;;28.80;44.73;101834.03;5057103;28;19938;-66
2023/09/08 08:42:14;;;;;;;;;;;;;;;28.80;44.66;101839.38;5007968;28;19950;-65
2023/09/08 08:44:40;;;;;;;;;;;;;;;28.87;44.46;101839.38;5096533;27;20027;-66
2023/09/08 08:47:10;;;;;;;;;;;;;;;28.82;44.44;101833.81;5006933;28;19949;-65
2023/09/08 08:49:36;;;;;;;;;;;;;;;28.81;44.89;101829.47;5060263;28;19940;-66
2023/09/08 08:52:06;;;;;;;;;;;;;;;28.81;44.55;101835.66;5006397;28;20566;-66
2023/09/08 08:54:34;;;;;;;;;;;;;;;28.87;44.63;101834.81;5058726;28;19975;-66
2023/09/08 08:57:00;;;;;;;;;;;;;;;28.87;44.58;101832.16;5008876;28;19970;-66
2023/09/08 08:59:25;;;;;;;;;;;;;;;28.91;44.63;101837.09;5061948;28;19956;-66
2023/09/08 09:01:51;;;;;;;;;;;;;;;28.92;44.50;101828.00;5008938;28;19949;-66
2023/09/08 09:04:16;;;;;;;;;;;;;;;28.93;44.47;101835.03;5063819;28;19988;-66
2023/09/08 09:06:42;;;;;;;;;;;;;;;28.94;44.35;101831.31;5000647;28;19929;-67
2023/09/08 09:09:08;;;;;;;;;;;;;;;28.92;44.74;101828.84;5062695;28;19996;-67
2023/09/08 09:11:33;;;;;;;;;;;;;;;28.96;44.60;101831.91;5010006;28;19957;-65
2023/09/08 09:13:59;;;;;;;;;;;;;;;28.97;44.43;101829.00;5059356;28;20485;-65
2023/09/08 09:16:24;;;;;;;;;;;;;;;28.96;44.57;101835.41;4998775;28;19920;-65
2023/09/08 09:18:53;;;;;;;;;;;;;;;28.97;44.67;101833.53;5048000;28;19937;-65
2023/09/08 09:21:18;;;;;;;;;;;;;;;28.96;44.52;101831.91;4999628;28;19940;-65
2023/09/08 09:23:44;;;;;;;;;;;;;;;28.99;44.45;101826.09;5053203;28;20496;-65
2023/09/08 09:26:11;;;;;;;;;;;;;;;29.02;44.29;101828.34;5008737;28;19975;-66
2023/09/08 09:28:46;;;;;;;;;;;;;;;29.04;44.41;101824.41;5064820;28;19946;-66
2023/09/08 09:31:12;;;;;;;;;;;;;;;29.07;44.13;101826.66;5000301;28;20821;-66
2023/09/08 09:33:37;;;;;;;;;;;;;;;29.10;44.44;101822.72;5060522;28;20079;-66
2023/09/08 09:36:02;;;;;;;;;;;;;;;29.07;44.50;101823.13;5001122;28;20420;-64
2023/09/08 09:38:28;;;;;;;;;;;;;;;29.04;44.24;101829.75;5056940;28;20066;-65
2023/09/08 09:40:55;;;;;;;;;;;;;;;29.05;44.34;101825.22;5003049;28;20463;-66
2023/09/08 09:43:22;;;;;;;;;;;;;;;29.08;44.32;101824.78;5038324;28;20064;-67
2023/09/08 09:45:48;;;;;;;;;;;;;;;29.12;44.25;101832.19;5057959;28;20016;-66
2023/09/08 09:48:15;;;;;;;;;;;;;;;29.08;44.29;101828.28;4996298;28;20322;-67
2023/09/08 09:50:41;;;;;;;;;;;;;;;29.12;43.94;101823.31;5055332;28;20346;-67
2023/09/08 09:53:10;;;;;;;;;;;;;;;29.10;44.24;101820.03;5001044;28;20356;-65
2023/09/08 09:55:36;;;;;;;;;;;;;;;29.09;44.05;101821.91;5057220;28;19941;-66
2023/09/08 09:58:03;;;;;;;;;;;;;;;29.11;44.26;101824.38;5000699;28;19949;-66
2023/09/08 10:00:29;;;;;;;;;;;;;;;29.13;43.99;101812.38;5054021;28;20424;-66
2023/09/08 10:02:55;;;;;;;;;;;;;;;29.14;44.32;101805.97;4996891;28;19971;-66
2023/09/08 10:05:21;;;;;;;;;;;;;;;29.09;44.18;101805.00;5060084;28;19962;-66
2023/09/08 10:07:50;;;;;;;;;;;;;;;29.13;44.21;101803.50;5005987;28;19950;-66
2023/09/08 10:10:15;;;;;;;;;;;;;;;29.13;44.03;101790.91;5058383;28;20145;-66
2023/09/08 10:12:47;;;;;;;;;;;;;;;29.18;44.06;101796.44;5005738;28;19928;-66
2023/09/08 10:15:13;;;;;;;;;;;;;;;29.15;44.39;101796.06;5063808;28;20001;-66
2023/09/08 10:17:41;;;;;;;;;;;;;;;29.15;44.09;101791.53;5018515;28;19957;-65
2023/09/08 10:20:10;;;;;;;;;;;;;;;29.17;44.26;101789.44;5064725;28;19941;-66
2023/09/08 10:22:37;;;;;;;;;;;;;;;29.16;44.27;101786.97;5002614;28;19999;-66
2023/09/08 10:25:03;;;;;;;;;;;;;;;29.12;44.16;101786.59;5058578;28;19954;-66
2023/09/08 10:27:29;;;;;;;;;;;;;;;29.14;44.07;101783.69;5004643;28;19974;-66
2023/09/08 10:29:55;;;;;;;;;;;;;;;29.13;44.22;101787.44;5061089;28;19937;-66
2023/09/08 10:32:20;;;;;;;;;;;;;;;29.15;44.00;101785.34;5009463;28;20002;-65
2023/09/08 10:34:47;;;;;;;;;;;;;;;29.16;44.01;101784.28;5065158;28;19972;-66
2023/09/08 10:37:24;;;;;;;;;;;;;;;29.15;44.15;101786.16;5003334;28;20596;-66
2023/09/08 10:39:50;;;;;;;;;;;;;;;29.13;44.03;101790.09;5059701;28;20380;-66
2023/09/08 10:42:21;;;;;;;;;;;;;;;29.19;44.11;101783.84;5002650;28;19945;-66
2023/09/08 10:44:49;;;;;;;;;;;;;;;29.23;43.83;101782.38;5057165;28;20125;-68
2023/09/08 10:47:20;;;;;;;;;;;;;;;29.16;44.32;101786.97;4999008;28;19959;-67
2023/09/08 10:49:46;;;;;;;;;;;;;;;29.17;44.31;101784.06;5051850;28;19965;-66
2023/09/08 10:52:12;;;;;;;;;;;;;;;29.24;44.01;101788.56;5052782;28;20457;-66
2023/09/08 10:54:44;;;;;;;;;;;;;;;29.19;44.06;101794.59;5055035;28;20030;-66
2023/09/08 10:57:14;;;;;;;;;;;;;;;29.23;44.01;101789.59;4999447;28;20421;-66
2023/09/08 10:59:40;;;;;;;;;;;;;;;29.19;43.93;101795.41;5058445;28;20293;-66
2023/09/08 11:02:05;;;;;;;;;;;;;;;29.22;44.19;101788.78;5000905;28;20055;-66
2023/09/08 11:04:32;;;;;;;;;;;;;;;29.22;44.00;101794.13;5058588;28;19954;-67
2023/09/08 11:06:57;;;;;;;;;;;;;;;29.18;44.02;101784.91;5006194;28;19966;-66
2023/09/08 11:09:23;;;;;;;;;;;;;;;29.21;44.09;101789.81;5068113;28;19947;-66
2023/09/08 11:11:49;;;;;;;;;;;;;;;29.19;44.02;101787.34;5001358;28;21594;-66
2023/09/08 11:14:15;;;;;;;;;;;;;;;29.20;44.02;101785.50;5069945;28;19946;-66
2023/09/08 11:16:43;;;;;;;;;;;;;;;29.24;43.92;101780.50;5002352;28;20509;-66
2023/09/08 11:19:09;;;;;;;;;;;;;;;29.22;44.17;101786.09;5064411;28;19940;-66
2023/09/08 11:21:38;;;;;;;;;;;;;;;29.24;44.00;101780.50;5014723;28;19934;-66
2023/09/08 11:24:05;;;;;;;;;;;;;;;29.26;43.88;101781.09;5046452;28;20015;-69
2023/09/08 11:26:38;;;;;;;;;;;;;;;29.23;44.29;101777.00;5027332;28;19962;-65
2023/09/08 11:29:05;;;;;;;;;;;;;;;29.23;43.90;101785.06;5050347;28;19958;-67
2023/09/08 11:31:31;;;;;;;;;;;;;;;29.27;44.13;101785.47;5021326;28;20352;-65
2023/09/08 11:34:01;;;;;;;;;;;;;;;29.26;44.23;101789.16;5032928;28;19955;-66
2023/09/08 11:36:32;;;;;;;;;;;;;;;29.23;44.11;101781.53;5049414;28;19947;-66
2023/09/08 11:38:57;;;;;;;;;;;;;;;29.23;44.25;101779.69;5034901;28;19949;-68
2023/09/08 11:41:25;;;;;;;;;;;;;;;29.07;44.03;101759.59;5049794;28;19946;-65
2023/09/08 11:43:52;;;;;;;;;;;;;;;29.28;44.02;101784.41;5003090;28;20097;-65
2023/09/08 11:46:18;;;;;;;;;;;;;;;29.25;44.04;101780.28;5058837;28;20496;-64
2023/09/08 11:48:43;;;;;;;;;;;;;;;29.30;43.94;101776.97;5006990;28;19955;-65
2023/09/08 11:51:10;;;;;;;;;;;;;;;29.25;43.95;101785.66;5055480;28;19973;-65
2023/09/08 11:53:35;;;;;;;;;;;;;;;29.30;44.18;101776.97;4996906;28;20506;-66
2023/09/08 11:56:01;;;;;;;;;;;;;;;29.26;44.10;101781.09;5064907;28;19937;-65
2023/09/08 11:58:26;;;;;;;;;;;;;;;29.26;44.20;101779.25;5000873;28;20439;-67
2023/09/08 12:00:52;;;;;;;;;;;;;;;29.28;44.17;101779.03;5069220;28;19966;-66
2023/09/08 12:03:17;;;;;;;;;;;;;;;29.26;44.00;101776.56;5042881;28;19970;-66
2023/09/08 12:05:51;;;;;;;;;;;;;;;29.32;44.00;101769.50;5061786;28;19967;-66
2023/09/08 12:08:16;;;;;;;;;;;;;;;29.30;44.00;101771.59;5007525;28;19946;-67
2023/09/08 12:10:42;;;;;;;;;;;;;;;29.23;44.10;101770.81;5060988;28;19986;-65
2023/09/08 12:13:08;;;;;;;;;;;;;;;29.26;44.22;101768.50;5007624;28;19962;-66
2023/09/08 12:15:35;;;;;;;;;;;;;;;29.29;44.15;101770.78;5057652;28;19931;-65
2023/09/08 12:18:08;;;;;;;;;;;;;;;29.31;44.13;101770.56;5004959;28;19961;-65
2023/09/08 12:20:33;;;;;;;;;;;;;;;29.28;44.34;101771.00;5071834;28;19936;-65
2023/09/08 12:23:03;;;;;;;;;;;;;;;29.33;44.22;101776.50;5007146;28;20000;-64
2023/09/08 12:25:31;;;;;;;;;;;;;;;29.30;44.12;101771.59;5055633;28;20059;-64
2023/09/08 12:27:56;;;;;;;;;;;;;;;29.24;44.18;101764.41;5002554;28;19980;-64
2023/09/08 12:30:35;;;;;;;;;;;;;;;29.24;44.39;101777.81;5054661;28;19944;-64
2023/09/08 12:33:01;;;;;;;;;;;;;;;29.29;44.22;101764.59;5004962;28;19942;-65